Time;durP1;ratioP1;P1;durP2;ratioP2;P2;SDS_P1;SDS_P2;PMS_P1;PMS_P2;Temp;Humidity;BMP_temperature;BMP_pressure;BME280_temperature;BME280_humidity;BME280_pressure;Samples;Min_cycle;Max_cycle;Signal;HPM_P1;HPM_P2
2021/07/08 00:02:26;;;;;;;8.40;3.33;;;18.80;89.20;;;18.66;79.57;100827.09;4970119;28;20050;-79
2021/07/08 00:04:53;;;;;;;7.13;3.70;;;18.70;89.10;;;18.68;79.29;100822.19;4970670;28;20047;-80
2021/07/08 00:07:21;;;;;;;7.20;3.60;;;18.70;89.10;;;18.61;79.34;100824.16;4970212;28;20137;-79
2021/07/08 00:09:48;;;;;;;6.30;3.00;;;18.70;89.10;;;18.59;79.34;100829.06;4953199;28;20055;-79
2021/07/08 00:12:15;;;;;;;7.60;3.17;;;18.70;89.20;;;18.55;79.44;100827.84;4970721;28;20054;-80
2021/07/08 00:14:42;;;;;;;6.55;3.40;;;18.60;89.00;;;18.57;79.21;100825.72;4970400;28;20071;-79
2021/07/08 00:17:10;;;;;;;6.00;3.25;;;18.60;89.00;;;18.55;79.01;100831.44;4970421;28;20047;-79
2021/07/08 00:19:38;;;;;;;6.35;3.25;;;18.60;88.90;;;18.52;79.01;100828.31;4970672;28;20042;-80
2021/07/08 00:22:06;;;;;;;6.35;3.22;;;18.50;89.00;;;18.51;79.08;100837.66;4985867;28;20361;-80
2021/07/08 00:24:33;;;;;;;5.53;3.35;;;18.50;89.10;;;18.49;78.77;100834.28;4989905;28;20050;-80
2021/07/08 00:27:00;;;;;;;7.85;3.33;;;18.50;89.10;;;18.42;78.71;100828.00;4989252;28;20121;-79
2021/07/08 00:29:28;;;;;;;7.75;3.65;;;18.50;89.00;;;18.41;78.89;100826.31;4972399;28;20645;-79
2021/07/08 00:31:55;;;;;;;6.57;3.10;;;18.40;89.00;;;18.37;78.99;100825.91;4989532;28;20073;-79
2021/07/08 00:34:22;;;;;;;5.55;3.10;;;18.40;89.20;;;18.39;78.80;100823.81;4989550;28;20085;-79
2021/07/08 00:36:51;;;;;;;8.48;3.55;;;18.30;89.10;;;18.33;78.49;100820.06;4988964;28;20042;-80
2021/07/08 00:39:18;;;;;;;7.13;3.15;;;18.30;89.10;;;18.32;78.67;100828.53;4988623;28;20077;-79
2021/07/08 00:41:45;;;;;;;5.65;2.92;;;18.30;89.10;;;18.31;78.70;100830.44;4988948;28;20066;-79
2021/07/08 00:44:12;;;;;;;6.60;3.35;;;18.30;89.20;;;18.26;78.78;100833.03;4989297;28;20072;-79
2021/07/08 00:46:41;;;;;;;6.20;3.22;;;18.20;89.10;;;18.24;78.50;100832.44;4989275;28;20045;-80
2021/07/08 00:49:08;;;;;;;8.10;3.40;;;18.20;89.00;;;18.22;78.81;100839.22;4989634;28;20046;-79
2021/07/08 00:51:36;;;;;;;11.07;3.60;;;18.20;89.20;;;18.22;78.43;100840.09;4989505;28;20101;-80
2021/07/08 00:54:04;;;;;;;5.35;3.05;;;18.20;89.20;;;18.21;78.38;100840.31;4989185;28;20053;-79
2021/07/08 00:56:35;;;;;;;6.70;3.13;;;18.10;89.20;;;18.15;78.79;100844.81;4989000;28;20126;-79
2021/07/08 00:59:05;;;;;;;9.47;3.00;;;18.10;89.40;;;18.14;79.21;100838.47;4989562;28;20074;-79
2021/07/08 01:01:33;;;;;;;5.80;3.13;;;18.10;89.70;;;18.12;79.18;100842.50;4989052;28;20289;-79
2021/07/08 01:04:02;;;;;;;5.60;3.00;;;18.10;89.80;;;18.09;79.45;100835.53;4989291;28;20073;-80
2021/07/08 01:06:32;;;;;;;6.80;3.50;;;18.10;90.00;;;18.09;79.55;100830.03;4988844;28;20430;-79
2021/07/08 01:09:00;;;;;;;5.82;3.15;;;18.10;90.10;;;18.08;79.78;100827.50;4989511;28;20089;-79
2021/07/08 01:11:29;;;;;;;6.55;3.10;;;18.10;90.30;;;18.09;79.78;100834.72;4988926;28;20073;-80
2021/07/08 01:13:56;;;;;;;5.63;3.10;;;18.10;90.50;;;18.06;79.82;100821.38;4990700;28;20046;-80
2021/07/08 01:16:25;;;;;;;4.85;3.58;;;18.10;90.60;;;18.07;80.18;100829.41;4992612;28;20447;-79
2021/07/08 01:18:53;;;;;;;5.25;2.97;;;18.10;90.70;;;18.05;80.70;100838.97;4993387;28;20046;-79
2021/07/08 01:21:25;;;;;;;8.60;3.15;;;18.10;90.70;;;18.03;80.47;100830.94;4993270;28;20104;-79
2021/07/08 01:23:53;;;;;;;9.82;3.65;;;18.10;90.80;;;18.03;80.66;100824.56;4993078;28;20042;-80
2021/07/08 01:26:21;;;;;;;7.68;3.28;;;18.10;90.80;;;18.02;80.55;100820.16;4992800;28;20042;-79
2021/07/08 01:28:50;;;;;;;6.65;3.40;;;18.10;90.60;;;18.04;80.35;100829.03;4992805;28;20074;-79
2021/07/08 01:31:17;;;;;;;8.95;3.22;;;18.10;90.50;;;17.98;80.21;100826.09;4993014;28;20085;-79
2021/07/08 01:33:46;;;;;;;6.63;3.20;;;18.10;90.50;;;17.94;80.24;100822.13;4992425;28;20084;-80
2021/07/08 01:36:14;;;;;;;7.53;3.42;;;18.00;90.40;;;17.98;80.09;100823.34;4992352;28;20129;-79
2021/07/08 01:38:44;;;;;;;5.45;3.00;;;18.00;90.40;;;18.00;80.17;100828.63;4992482;28;20507;-79
2021/07/08 01:41:12;;;;;;;7.75;3.30;;;18.00;90.30;;;18.02;79.83;100828.41;4992213;28;20089;-79
2021/07/08 01:43:43;;;;;;;4.95;3.00;;;18.00;90.30;;;17.97;79.83;100820.81;4992457;28;20121;-79
2021/07/08 01:46:14;;;;;;;6.53;3.17;;;18.00;90.40;;;17.95;79.78;100820.19;4992085;28;20070;-79
2021/07/08 01:48:42;;;;;;;;;;;18.00;90.40;;;17.91;80.03;100819.81;4993079;28;20042;-79
2021/07/08 01:51:26;;;;;;;5.03;2.90;;;17.90;90.50;;;17.87;80.12;100820.50;4992151;28;20437;-80
2021/07/08 01:53:55;;;;;;;6.82;3.17;;;17.90;90.50;;;17.86;79.95;100816.03;4992500;28;20130;-79
2021/07/08 01:56:22;;;;;;;5.82;3.60;;;17.90;90.30;;;17.83;79.87;100817.31;4999660;22;20129;-79
2021/07/08 01:58:50;;;;;;;5.70;2.88;;;17.90;90.30;;;17.82;79.81;100812.91;4973934;28;20059;-79
2021/07/08 02:01:17;;;;;;;8.52;3.53;;;17.80;90.30;;;17.80;79.81;100817.78;4983694;28;20510;-82
2021/07/08 02:03:44;;;;;;;6.55;3.20;;;17.80;90.50;;;17.80;79.58;100820.53;4992030;28;20089;-82
2021/07/08 02:06:12;;;;;;;6.35;3.22;;;17.80;90.40;;;17.73;79.53;100822.50;4976215;28;20113;-82
2021/07/08 02:08:41;;;;;;;6.97;3.50;;;17.80;90.20;;;17.74;79.64;100811.25;4973125;28;20165;-82
2021/07/08 02:11:12;;;;;;;5.85;2.97;;;17.80;90.40;;;17.72;79.66;100815.28;4972822;28;20102;-82
2021/07/08 02:13:40;;;;;;;5.97;2.97;;;17.70;90.50;;;17.70;79.59;100821.00;4972489;28;20078;-82
2021/07/08 02:16:09;;;;;;;7.03;3.65;;;17.70;90.40;;;17.74;79.55;100816.78;4972413;28;20090;-82
2021/07/08 02:18:37;;;;;;;6.75;3.15;;;17.70;90.40;;;17.72;79.25;100818.03;4972542;28;20109;-82
2021/07/08 02:21:05;;;;;;;5.88;3.20;;;17.70;90.40;;;17.74;79.27;100821.41;4972214;28;20570;-82
2021/07/08 02:23:33;;;;;;;6.55;3.50;;;17.60;90.10;;;17.71;79.16;100814.47;4972059;28;20102;-82
2021/07/08 02:26:01;;;;;;;11.52;3.50;;;17.60;90.10;;;17.67;79.35;100815.97;4971077;28;20133;-82
2021/07/08 02:28:30;;;;;;;6.82;3.30;;;17.60;90.10;;;17.65;79.18;100815.38;4972551;28;20050;-82
2021/07/08 02:30:58;;;;;;;6.60;3.25;;;17.60;90.00;;;17.65;79.15;100811.75;4974798;28;20122;-82
2021/07/08 02:33:27;;;;;;;5.53;3.10;;;17.60;90.00;;;17.63;78.79;100813.88;4972322;28;20046;-82
2021/07/08 02:35:55;;;;;;;6.07;3.10;;;17.60;90.10;;;17.58;79.22;100812.66;4972045;28;20053;-79
2021/07/08 02:38:22;;;;;;;7.40;3.30;;;17.50;90.30;;;17.61;79.15;100811.38;4971997;28;20051;-79
2021/07/08 02:40:50;;;;;;;4.72;3.03;;;17.50;90.40;;;17.57;79.20;100815.63;4972259;28;20074;-80
2021/07/08 02:43:18;;;;;;;5.03;2.92;;;17.50;90.20;;;17.55;79.15;100818.63;4971863;28;20098;-80
2021/07/08 02:45:47;;;;;;;5.95;2.95;;;17.50;90.30;;;17.54;79.07;100816.91;4979238;28;20145;-80
2021/07/08 02:48:19;;;;;;;5.75;2.85;;;17.50;90.30;;;17.57;78.71;100821.97;4991167;28;20052;-79
2021/07/08 02:50:50;;;;;;;6.60;3.40;;;17.50;90.20;;;17.54;78.72;100816.91;4990258;28;20078;-79
2021/07/08 02:53:19;;;;;;;5.80;3.10;;;17.50;90.30;;;17.53;78.92;100825.38;4991712;28;20046;-80
2021/07/08 02:55:47;;;;;;;7.45;3.30;;;17.40;90.20;;;17.48;79.03;100822.47;4991040;28;20507;-80
2021/07/08 02:58:14;;;;;;;5.90;3.42;;;17.40;90.40;;;17.44;79.09;100811.06;4991440;28;20050;-80
2021/07/08 03:00:42;;;;;;;6.88;3.28;;;17.40;90.40;;;17.48;78.83;100812.31;4991501;28;20122;-80
2021/07/08 03:03:11;;;;;;;6.88;3.30;;;17.40;90.40;;;17.42;79.08;100818.72;4991215;28;20511;-80
2021/07/08 03:05:39;;;;;;;7.80;3.45;;;17.40;90.20;;;17.42;78.88;100823.34;4991290;28;20126;-80
2021/07/08 03:08:07;;;;;;;6.57;3.17;;;17.30;90.50;;;17.39;79.13;100824.66;4991160;28;20061;-79
2021/07/08 03:10:35;;;;;;;6.75;3.17;;;17.30;90.50;;;17.37;79.26;100821.28;4990988;28;20205;-80
2021/07/08 03:13:02;;;;;;;5.38;3.40;;;17.30;90.60;;;17.34;79.47;100824.47;4991146;28;20046;-80
2021/07/08 03:15:30;;;;;;;6.57;3.53;;;17.30;90.60;;;17.38;79.38;100817.44;4991005;28;20121;-80
2021/07/08 03:17:58;;;;;;;7.68;3.22;;;17.30;90.60;;;17.37;79.05;100822.13;4990736;28;20077;-80
2021/07/08 03:20:31;;;;;;;6.93;3.45;;;17.30;90.60;;;17.35;79.12;100831.66;4991126;28;20502;-80
2021/07/08 03:22:58;;;;;;;5.55;3.20;;;17.30;90.60;;;17.33;79.10;100842.06;4990778;28;20863;-79
2021/07/08 03:25:26;;;;;;;6.53;3.17;;;17.30;90.60;;;17.34;79.03;100843.72;4990941;28;20702;-79
2021/07/08 03:27:55;;;;;;;8.10;3.65;;;17.20;90.50;;;17.32;79.09;100845.84;4990571;28;20121;-80
2021/07/08 03:30:25;;;;;;;7.45;3.40;;;17.20;90.50;;;17.32;79.04;100843.94;4990826;28;20042;-79
2021/07/08 03:32:54;;;;;;;6.22;3.40;;;17.20;90.50;;;17.26;79.12;100841.25;4990595;28;20050;-79
2021/07/08 03:35:21;;;;;;;10.20;3.58;;;17.20;90.40;;;17.30;78.89;100839.72;4990729;28;20061;-80
2021/07/08 03:37:50;;;;;;;7.95;3.45;;;17.20;90.50;;;17.31;78.83;100839.50;4989908;28;20073;-79
2021/07/08 03:40:20;;;;;;;9.38;3.20;;;17.20;90.40;;;17.30;78.67;100836.97;4989336;28;20085;-79
2021/07/08 03:42:49;;;;;;;11.25;3.67;;;17.20;90.40;;;17.24;78.88;100837.88;4990639;28;20125;-79
2021/07/08 03:45:17;;;;;;;7.53;3.67;;;17.20;90.30;;;17.25;78.99;100837.66;4990261;28;20052;-79
2021/07/08 03:47:46;;;;;;;5.68;3.20;;;17.20;90.20;;;17.22;79.30;100837.25;4990367;28;20120;-80
2021/07/08 03:50:15;;;;;;;6.93;3.55;;;17.20;90.30;;;17.24;79.02;100837.88;4988681;28;20066;-80
2021/07/08 03:52:45;;;;;;;7.53;3.20;;;17.20;90.30;;;17.22;78.86;100840.84;4990389;28;20046;-80
2021/07/08 03:55:17;;;;;;;7.57;3.10;;;17.20;90.10;;;17.20;79.21;100846.56;4989986;28;20049;-79
2021/07/08 03:57:54;;;;;;;5.68;3.22;;;17.20;90.40;;;17.16;79.39;100853.56;4989886;28;20100;-80
2021/07/08 04:00:31;;;;;;;6.25;3.38;;;17.20;90.20;;;17.19;79.24;100852.25;4990137;28;20056;-80
2021/07/08 04:03:02;;;;;;;6.00;3.38;;;17.30;90.30;;;17.20;79.24;100853.97;4988645;28;20081;-80
2021/07/08 04:05:30;;;;;;;6.80;3.10;;;17.30;90.30;;;17.20;79.13;100854.81;4990262;28;20097;-79
2021/07/08 04:07:57;;;;;;;6.25;3.00;;;17.30;90.20;;;17.23;79.18;100855.44;4989702;28;20042;-79
2021/07/08 04:10:26;;;;;;;7.47;3.10;;;17.30;90.20;;;17.26;79.18;100849.50;4990300;28;20073;-80
2021/07/08 04:12:54;;;;;;;5.65;3.30;;;17.30;90.20;;;17.25;79.20;100850.53;4989717;28;20054;-80
2021/07/08 04:15:22;;;;;;;5.38;3.33;;;17.30;90.20;;;17.25;79.26;100856.03;4989910;28;20050;-80
2021/07/08 04:17:49;;;;;;;6.07;3.40;;;17.30;90.10;;;17.23;79.80;100859.03;4989629;28;20077;-79
2021/07/08 04:20:20;;;;;;;5.85;3.00;;;17.40;90.10;;;17.24;79.59;100862.63;4989961;28;20046;-79
2021/07/08 04:22:48;;;;;;;6.20;3.08;;;17.40;90.00;;;17.18;79.79;100861.59;4989952;28;20479;-80
2021/07/08 04:25:16;;;;;;;4.78;3.05;;;17.40;89.90;;;17.16;79.88;100870.06;4989605;28;20046;-80
2021/07/08 04:27:46;;;;;;;5.63;3.13;;;17.40;89.90;;;17.19;79.92;100871.53;4989309;28;20077;-79
2021/07/08 04:30:16;;;;;;;9.02;3.38;;;17.50;90.00;;;17.20;79.72;100867.72;4987069;28;20046;-79
2021/07/08 04:32:44;;;;;;;6.30;3.90;;;17.50;90.00;;;17.23;79.97;100869.19;4989763;28;20104;-79
2021/07/08 04:35:17;;;;;;;7.35;3.53;;;17.50;90.10;;;17.23;80.01;100874.69;4989545;28;20046;-79
2021/07/08 04:37:44;;;;;;;5.43;3.40;;;17.50;90.00;;;17.23;80.09;100872.78;4989553;28;20038;-79
2021/07/08 04:40:15;;;;;;;7.90;3.17;;;17.50;90.00;;;17.25;79.99;100873.41;4989382;28;20078;-80
2021/07/08 04:42:42;;;;;;;8.32;3.80;;;17.60;90.00;;;17.25;80.10;100872.56;4989763;28;20084;-77
2021/07/08 04:45:12;;;;;;;5.95;3.17;;;17.60;89.80;;;17.27;80.31;100876.78;4989723;28;20046;-78
2021/07/08 04:47:41;;;;;;;11.57;3.90;;;17.70;89.70;;;17.31;80.33;100872.53;4988904;28;20085;-77
2021/07/08 04:50:11;;;;;;;8.15;3.90;;;17.80;89.40;;;17.32;80.55;100878.88;4971615;28;20047;-77
2021/07/08 04:52:39;;;;;;;9.53;3.67;;;17.90;89.10;;;17.32;80.84;100876.13;4989173;28;20100;-77
2021/07/08 04:55:08;;;;;;;9.15;3.88;;;17.90;89.10;;;17.33;80.79;100877.81;4989492;28;20062;-77
2021/07/08 04:57:36;;;;;;;6.20;3.72;;;17.90;89.10;;;17.37;81.02;100874.38;4988924;28;20038;-77
2021/07/08 05:00:05;;;;;;;5.45;3.80;;;17.90;89.50;;;17.38;81.17;100864.22;4989526;28;20156;-77
2021/07/08 05:02:34;;;;;;;9.80;4.00;;;17.90;89.70;;;17.41;81.52;100862.94;4989194;28;20103;-77
2021/07/08 05:05:01;;;;;;;9.10;3.67;;;18.00;90.00;;;17.43;81.58;100869.06;4989145;28;20481;-77
2021/07/08 05:07:28;;;;;;;9.60;3.92;;;18.00;90.20;;;17.44;81.71;100865.25;4989075;28;20038;-77
2021/07/08 05:09:56;;;;;;;6.03;3.72;;;18.00;90.00;;;17.43;82.08;100858.91;4989283;28;20859;-77
2021/07/08 05:12:23;;;;;;;9.32;4.03;;;18.00;90.10;;;17.49;81.69;100863.50;4989482;28;20121;-77
2021/07/08 05:14:50;;;;;;;5.30;3.45;;;18.00;90.00;;;17.49;81.88;100866.25;4989304;28;20577;-77
2021/07/08 05:17:18;;;;;;;7.53;3.92;;;18.00;90.20;;;17.50;82.06;100867.13;4989108;28;20096;-77
2021/07/08 05:19:47;;;;;;;9.43;3.90;;;18.10;90.50;;;17.49;82.48;100858.00;4971510;28;20046;-77
2021/07/08 05:22:18;;;;;;;9.98;4.15;;;18.10;90.60;;;17.51;82.24;100855.03;4989246;28;20137;-77
2021/07/08 05:24:46;;;;;;;9.65;4.50;;;18.10;90.30;;;17.53;82.42;100866.66;4971681;28;20046;-77
2021/07/08 05:27:16;;;;;;;10.85;4.32;;;18.10;90.30;;;17.52;82.44;100856.75;4988688;28;20129;-76
2021/07/08 05:29:44;;;;;;;9.00;3.78;;;18.20;90.50;;;17.56;82.40;100867.06;4989354;28;20093;-76
2021/07/08 05:32:13;;;;;;;7.97;4.30;;;18.10;90.60;;;17.57;82.17;100866.03;4989029;28;20715;-77
2021/07/08 05:34:41;;;;;;;9.25;4.75;;;18.20;90.40;;;17.59;82.54;100874.03;4989194;28;20046;-76
2021/07/08 05:37:10;;;;;;;9.70;4.05;;;18.20;90.50;;;17.59;82.95;100863.88;4988581;28;20073;-78
2021/07/08 05:39:38;;;;;;;8.07;4.20;;;18.20;90.90;;;17.62;83.25;100867.25;4986051;28;20526;-84
2021/07/08 05:42:06;;;;;;;9.45;3.65;;;18.20;91.00;;;17.63;83.21;100868.94;4986642;28;20569;-82
2021/07/08 05:44:33;;;;;;;6.85;4.22;;;18.30;91.10;;;17.65;83.23;100872.28;4968535;28;20073;-82
2021/07/08 05:47:00;;;;;;;11.32;4.63;;;18.30;91.10;;;17.67;83.79;100864.66;4986010;28;20042;-82
2021/07/08 05:49:28;;;;;;;11.23;4.53;;;18.40;91.10;;;17.70;83.24;100864.22;4989086;28;20126;-82
2021/07/08 05:51:55;;;;;;;7.90;4.30;;;18.40;90.70;;;17.72;83.07;100851.91;4989071;28;20124;-79
2021/07/08 05:54:23;;;;;;;8.18;4.32;;;18.50;90.50;;;17.74;83.22;100854.44;4970565;28;20146;-81
2021/07/08 05:56:51;;;;;;;8.98;4.15;;;18.60;90.10;;;17.75;83.19;100861.66;4970844;28;20489;-80
2021/07/08 05:59:18;;;;;;;10.02;4.60;;;18.60;89.90;;;17.77;83.42;100867.78;4988487;28;20055;-79
2021/07/08 06:01:45;;;;;;;11.48;4.75;;;18.80;89.70;;;17.80;83.49;100875.59;4991327;28;20057;-79
2021/07/08 06:04:12;;;;;;;10.77;6.07;;;18.80;89.70;;;17.82;83.52;100878.97;4992567;28;20413;-78
2021/07/08 06:06:40;;;;;;;12.43;5.05;;;18.80;89.60;;;17.85;83.59;100878.53;4991849;28;20050;-79
2021/07/08 06:09:07;;;;;;;13.60;5.40;;;18.80;89.70;;;17.87;83.71;100884.66;4992382;28;20102;-79
2021/07/08 06:11:35;;;;;;;17.77;5.50;;;18.90;89.60;;;17.89;83.97;100882.53;4992054;28;20065;-78
2021/07/08 06:14:03;;;;;;;18.23;5.13;;;18.90;89.80;;;17.91;83.70;100885.91;4992398;28;20050;-78
2021/07/08 06:16:30;;;;;;;12.25;5.15;;;19.00;89.60;;;17.93;83.66;100881.03;4992020;28;20766;-78
2021/07/08 06:18:57;;;;;;;9.38;4.57;;;19.00;89.20;;;17.97;83.46;100892.41;4991200;28;20078;-77
2021/07/08 06:21:25;;;;;;;8.75;4.63;;;19.10;89.10;;;17.97;83.47;100885.03;4972955;28;20140;-78
2021/07/08 06:23:53;;;;;;;10.63;4.68;;;19.20;88.80;;;18.00;83.79;100891.16;4987070;28;20057;-78
2021/07/08 06:27:08;;;;;;;7.88;4.35;;;19.30;88.40;;;18.05;83.80;100888.53;4991779;28;20081;-78
2021/07/08 06:29:35;;;;;;;10.55;4.75;;;19.50;87.50;;;18.08;83.44;100888.94;4985916;28;20042;-79
2021/07/08 06:32:03;;;;;;;10.50;4.82;;;19.70;86.80;;;18.11;83.98;100884.91;4987932;28;20611;-78
2021/07/08 06:34:31;;;;;;;8.93;4.90;;;19.70;86.70;;;18.13;83.85;100891.03;4990078;28;20563;-79
2021/07/08 06:36:58;;;;;;;9.40;5.00;;;19.80;86.50;;;18.15;83.82;100889.72;4989024;28;20046;-78
2021/07/08 06:39:25;;;;;;;9.82;4.72;;;19.70;86.50;;;18.19;83.63;100887.38;4991309;28;20054;-79
2021/07/08 06:41:52;;;;;;;8.57;4.43;;;19.70;86.70;;;18.22;83.95;100897.94;4991226;28;20074;-79
2021/07/08 06:44:21;;;;;;;12.25;4.85;;;19.80;86.80;;;18.24;84.25;100895.81;4991498;28;20175;-78
2021/07/08 06:46:51;;;;;;;11.40;4.60;;;19.80;86.90;;;18.27;84.61;100900.84;4990629;28;20052;-79
2021/07/08 06:49:19;;;;;;;9.18;4.85;;;19.90;86.90;;;18.31;85.53;100893.81;4991264;28;20410;-79
2021/07/08 06:51:46;;;;;;;9.38;5.10;;;20.00;86.80;;;18.35;85.94;100900.56;4991665;28;20521;-79
2021/07/08 06:54:13;;;;;;;8.80;4.72;;;20.20;86.10;;;18.40;86.31;100902.63;4991399;28;20050;-79
2021/07/08 06:56:41;;;;;;;10.18;4.50;;;20.40;86.30;;;18.46;86.77;100903.63;4973478;28;20434;-80
2021/07/08 06:59:09;;;;;;;10.60;4.85;;;20.60;85.80;;;18.51;86.92;100898.31;4991547;28;20050;-80
2021/07/08 07:01:38;;;;;;;15.07;4.63;;;20.80;85.30;;;18.57;85.75;100908.41;4991116;28;20038;-81
2021/07/08 07:04:05;;;;;;;12.57;5.00;;;21.00;83.90;;;18.63;85.69;100918.50;4991262;28;20470;-82
2021/07/08 07:06:32;;;;;;;10.00;4.60;;;21.00;83.80;;;18.68;85.55;100923.34;4990859;28;20109;-82
2021/07/08 07:09:00;;;;;;;10.30;4.57;;;21.10;83.50;;;18.73;85.28;100918.84;4991042;28;20046;-81
2021/07/08 07:11:27;;;;;;;10.68;4.25;;;21.20;83.00;;;18.80;85.16;100921.53;4972959;28;20653;-82
2021/07/08 07:13:54;;;;;;;15.07;4.72;;;21.40;82.70;;;18.86;84.89;100928.06;4973123;28;20050;-81
2021/07/08 07:16:22;;;;;;;15.77;5.55;;;21.50;82.60;;;18.92;84.82;100922.47;4972852;28;20137;-81
2021/07/08 07:18:50;;;;;;;7.60;4.05;;;21.50;82.10;;;18.99;84.22;100930.66;4990808;28;20050;-82
2021/07/08 07:21:18;;;;;;;8.93;4.60;;;21.60;81.10;;;19.06;84.05;100927.84;4991015;28;20261;-82
2021/07/08 07:23:46;;;;;;;16.60;4.90;;;21.80;80.90;;;19.11;83.98;100934.34;4972765;28;20046;-80
2021/07/08 07:26:16;;;;;;;10.90;4.57;;;21.80;80.80;;;19.19;83.64;100929.56;4990391;28;20419;-78
2021/07/08 07:28:43;;;;;;;15.63;5.15;;;21.90;80.50;;;19.24;83.11;100933.31;4990569;28;20046;-79
2021/07/08 07:31:10;;;;;;;8.20;4.18;;;21.90;79.80;;;19.33;83.02;100928.34;4972980;28;20133;-79
2021/07/08 07:33:38;;;;;;;11.93;4.18;;;22.00;79.80;;;19.40;83.01;100934.63;4987818;28;20097;-78
2021/07/08 07:36:06;;;;;;;10.60;4.85;;;22.00;79.90;;;19.54;85.33;100915.94;4972196;28;20046;-81
2021/07/08 07:38:34;;;;;;;11.93;4.53;;;22.10;81.40;;;19.63;83.70;100921.97;4989937;28;20050;-79
2021/07/08 07:41:01;;;;;;;10.93;3.85;;;22.20;79.90;;;19.73;82.35;100927.81;4983209;28;20046;-81
2021/07/08 07:43:28;;;;;;;10.82;4.00;;;22.30;78.90;;;19.82;81.00;100929.16;4986592;28;20133;-80
2021/07/08 07:45:56;;;;;;;11.25;4.32;;;22.40;78.40;;;19.83;80.13;100938.28;4971742;28;20656;-80
2021/07/08 07:48:23;;;;;;;6.10;3.13;;;22.50;76.70;;;19.83;78.64;100936.34;4986647;28;20050;-80
2021/07/08 07:50:50;;;;;;;8.10;3.33;;;22.50;73.10;;;19.88;76.74;100946.72;4990031;28;20048;-80
2021/07/08 07:53:19;;;;;;;7.72;3.10;;;22.60;73.50;;;19.93;75.68;100949.59;4989987;28;20137;-80
2021/07/08 07:55:48;;;;;;;6.47;3.05;;;22.80;72.50;;;20.00;76.24;100957.78;4989788;28;20446;-80
2021/07/08 07:58:15;;;;;;;7.45;3.28;;;22.90;72.90;;;20.05;76.86;100953.25;4989674;28;20042;-80
2021/07/08 08:00:42;;;;;;;7.72;3.50;;;23.00;73.20;;;20.12;77.70;100942.06;4990086;28;20046;-81
2021/07/08 08:03:09;;;;;;;7.88;3.45;;;23.10;74.00;;;20.15;76.89;100941.59;4989959;28;20738;-80
2021/07/08 08:05:39;;;;;;;11.50;3.95;;;23.00;74.00;;;20.16;75.63;100943.25;4989867;28;20076;-81
2021/07/08 08:10:56;;;;;;;7.68;3.15;;;23.20;73.20;;;20.37;76.97;100928.06;4989857;28;20132;-80
2021/07/08 08:13:24;;;;;;;6.93;3.50;;;23.30;72.90;;;20.42;77.82;100933.69;4989669;28;20093;-80
2021/07/08 08:15:53;;;;;;;9.63;3.55;;;23.30;73.70;;;20.56;78.97;100931.53;4989084;28;20043;-80
2021/07/08 08:18:23;;;;;;;8.50;3.35;;;23.30;75.20;;;20.57;78.11;100930.44;4987505;28;20414;-80
2021/07/08 08:20:50;;;;;;;6.43;2.95;;;23.30;72.80;;;20.50;73.85;100922.28;4988797;28;20128;-80
2021/07/08 08:23:18;;;;;;;9.45;3.38;;;23.20;71.30;;;20.55;74.39;100927.06;4986960;28;20034;-80
2021/07/08 08:25:45;;;;;;;8.55;2.75;;;23.20;72.00;;;20.65;74.76;100924.56;4989207;28;20458;-79
2021/07/08 08:28:14;;;;;;;7.20;2.70;;;23.30;72.30;;;20.70;70.43;100921.09;5009535;23;20084;-79
2021/07/08 08:30:42;;;;;;;5.60;2.58;;;23.40;69.90;;;20.75;71.84;100923.13;5014750;28;20104;-79
2021/07/08 08:33:09;;;;;;;8.98;2.60;;;23.50;69.80;;;20.72;72.21;100921.69;5008879;28;20518;-79
2021/07/08 08:35:37;;;;;;;5.68;3.03;;;23.50;69.40;;;20.78;73.61;100933.72;5008975;28;20570;-79
2021/07/08 08:38:05;;;;;;;8.07;3.20;;;23.60;70.80;;;20.84;73.83;100935.50;5005896;28;20046;-78
2021/07/08 08:40:32;;;;;;;7.90;4.70;;;23.50;68.10;;;20.93;73.86;100938.75;5008868;28;20605;-79
2021/07/08 08:43:00;;;;;;;5.70;2.90;;;23.50;70.30;;;20.89;71.51;100938.38;5008611;28;20336;-79
2021/07/08 08:45:29;;;;;;;6.80;2.83;;;23.50;67.40;;;20.79;70.16;100935.38;5008973;28;20153;-79
2021/07/08 08:48:02;;;;;;;5.07;2.90;;;23.40;67.70;;;20.81;70.86;100936.84;5008202;28;20072;-79
2021/07/08 08:50:46;;;;;;;7.43;2.90;;;23.30;69.20;;;20.85;69.46;100934.44;5006387;28;20049;-78
2021/07/08 08:53:16;;;;;;;7.03;3.10;;;23.40;68.60;;;20.86;68.14;100927.78;4986021;28;20072;-77
2021/07/08 08:55:45;;;;;;;10.05;3.20;;;23.40;66.70;;;20.87;68.95;100922.03;5006685;28;20041;-78
2021/07/08 08:58:15;;;;;;;8.55;3.10;;;23.40;67.70;;;20.82;69.13;100913.59;5008221;28;20422;-78
2021/07/08 09:00:49;;;;;;;7.87;3.00;;;23.40;66.50;;;20.85;68.18;100915.91;5008612;28;20060;-78
2021/07/08 09:03:20;;;;;;;7.10;2.65;;;23.30;67.00;;;20.96;69.22;100919.75;5008768;28;20527;-78
2021/07/08 09:05:56;;;;;;;5.07;2.58;;;23.40;68.40;;;20.96;66.90;100919.75;4990761;28;20509;-78
2021/07/08 09:08:24;;;;;;;8.75;2.88;;;23.40;66.60;;;21.00;67.87;100918.16;4990769;28;20469;-78
2021/07/08 09:11:08;;;;;;;7.57;2.45;;;23.50;67.00;;;21.09;68.68;100911.16;4990549;28;20042;-78
2021/07/08 09:14:06;;;;;;;7.07;2.83;;;23.60;67.20;;;21.16;66.36;100911.00;4991060;28;20054;-78
2021/07/08 09:16:37;;;;;;;9.23;2.72;;;23.80;66.40;;;21.09;66.87;100919.47;5008145;28;20049;-78
2021/07/08 09:19:09;;;;;;;6.47;2.85;;;23.70;63.00;;;21.09;64.67;100924.13;5008219;28;20076;-80
2021/07/08 09:21:39;;;;;;;;;;;23.60;63.20;;;21.14;63.46;100934.50;5008740;28;20411;-78
2021/07/08 09:24:14;;;;;;;8.93;2.80;;;23.60;63.70;;;21.17;65.88;100940.38;5008281;28;19967;-78
2021/07/08 09:26:45;;;;;;;6.13;2.67;;;23.60;65.80;;;21.23;65.20;100941.34;4990445;28;20100;-78
2021/07/08 09:29:18;;;;;;;8.73;2.45;;;23.70;64.70;;;21.31;68.66;100943.72;5008315;28;20088;-78
2021/07/08 09:31:54;;;;;;;8.02;2.80;;;23.90;67.10;;;21.41;67.80;100943.91;5008529;28;20490;-78
2021/07/08 09:34:24;;;;;;;6.95;2.65;;;24.00;66.50;;;21.45;69.53;100936.81;4990645;28;20042;-78
2021/07/08 09:37:08;;;;;;;8.23;3.10;;;24.10;67.50;;;21.51;69.84;100934.16;5012176;28;20033;-79
2021/07/08 09:39:37;;;;;;;8.23;3.05;;;24.20;67.20;;;21.51;65.99;100934.97;5012119;28;20346;-79
2021/07/08 09:42:05;;;;;;;7.93;3.00;;;24.30;64.50;;;21.53;68.06;100931.97;5012173;28;20041;-78
2021/07/08 09:44:33;;;;;;;9.32;3.20;;;24.30;65.90;;;21.60;71.21;100935.44;5011906;28;20403;-79
2021/07/08 09:47:02;;;;;;;6.03;3.20;;;24.30;68.70;;;21.63;69.69;100940.50;4994122;28;20867;-79
2021/07/08 09:49:30;;;;;;;6.18;2.83;;;24.30;67.60;;;21.66;69.67;100942.75;4994210;28;20466;-78
2021/07/08 09:51:58;;;;;;;6.22;3.00;;;24.40;67.50;;;21.67;68.14;100941.69;5006090;28;20041;-78
2021/07/08 09:57:41;;;;;;;6.22;3.22;;;24.50;66.50;;;21.67;71.97;100936.97;5007582;28;20269;-78
2021/07/08 10:00:35;;;;;;;8.05;3.13;;;24.50;68.90;;;21.68;71.36;100929.50;5011203;28;20046;-78
2021/07/08 10:03:05;;;;;;;8.15;3.15;;;24.50;68.60;;;21.67;69.04;100930.59;5010904;28;20096;-78
2021/07/08 10:05:37;;;;;;;6.15;3.53;;;24.60;66.30;;;21.67;68.58;100927.81;5011315;28;20061;-78
2021/07/08 10:08:09;;;;;;;5.85;3.40;;;24.60;66.00;;;21.67;69.78;100927.81;5011473;28;20038;-78
2021/07/08 10:10:37;;;;;;;7.95;3.40;;;24.60;67.20;;;21.71;71.35;100934.53;5010509;28;20458;-78
2021/07/08 10:13:07;;;;;;;7.03;2.90;;;24.50;68.50;;;21.73;70.62;100935.13;5011537;28;20076;-78
2021/07/08 10:15:37;;;;;;;7.35;3.00;;;24.50;67.90;;;21.76;68.32;100929.09;5011796;28;20050;-78
2021/07/08 10:18:07;;;;;;;6.80;2.93;;;24.50;66.30;;;21.77;68.17;100928.00;5011564;28;20089;-78
2021/07/08 10:20:36;;;;;;;8.07;3.22;;;24.50;66.20;;;21.80;70.20;100923.88;5011676;28;20057;-78
2021/07/08 10:23:04;;;;;;;10.65;3.03;;;24.50;67.90;;;21.79;66.61;100923.03;5011565;28;20049;-78
2021/07/08 10:25:31;;;;;;;7.32;3.22;;;24.50;64.70;;;21.81;68.73;100918.09;5010922;28;20117;-78
2021/07/08 10:27:59;;;;;;;7.18;3.30;;;24.40;66.80;;;21.80;69.28;100926.66;5011041;28;20069;-78